KHIO/HIO METAR and TAF weather

Enter ICAO airport designator
Station Type Date Time Source
KHIO METAR 2020/10/29 16:53 UTC NOAA

KHIO 291653Z 00000KT 10SM FEW002 09/09 A3021 RMK AO2 SLP229 T00940089


Station Type Date Time Source
KHIO Decoded METAR 2020/10/29 16:53 UTC NOAA

PORTLAND-HILLSBORO AIRPORT, OR, United States (KHIO) 45-33N 122-57W 68M
Oct 29, 2020 - 12:53 PM EDT / 2020.10.29 1653 UTC
Wind: Calm:0
Visibility: 10 mile(s):0
Sky conditions: mostly clear
Temperature: 48.9 F (9.4 C)
Dew Point: 48.0 F (8.9 C)
Relative Humidity: 96%
Pressure (altimeter): 30.21 in. Hg (1023 hPa)
ob: KHIO 291653Z 00000KT 10SM FEW002 09/09 A3021 RMK AO2 SLP229 T00940089
cycle: 17

Station Type Date Time Source
KHIO TAF 2020/10/29 17:48 UTC NOAA

TAF
AMD KHIO 291647Z 2917/3012 00000KT 6SM BR BKN002 BKN018
FM291800 00000KT P6SM FEW002 BKN018
FM291900 00000KT P6SM BKN150
FM300600 00000KT 1 1/2SM BR SCT017
FM300900 00000KT 1SM BR BKN005

Example: see airport list